Yuanjiang, China
Current Conditions -  °F | °C
As of 11:00 AM on Sunday 26 Oct 2014 (Local Time) from ZPPP Reporting Station
Few Clouds Few Clouds  
Wind Chill: 63°   Ceiling: Unl
Heat Index: 63°   Visibility: 6mi
Dew Point: 52°   Wind: 9mph
Humidity: 68%   Direction: 220°SW
Pressure: 30.39"   Gusts: NA
Location:  23.6°N, 101.98°E
Report Text: ZPPP 260300Z 22004MPS 190V250 9999 FEW023 17/11 Q1029 NOSIG
Loading
Personal Weather Stations






























Interactive Weather Map
Tropical Storm Tracking
New forecast layout! Learn more

10-Day Weather Forecast

Advertisements
Track Severe Weather on mobile